Terminal Aerodrome Forecast
Issued by NWS Louisville, KY

Home | Current Version | Previous Version | Text Only | Print | Product List | Glossary On
Versions: 1 2 3 4 5 6 7 8 9 10 11 12 13 14 15 16 17 18
245
FTUS43 KLMK 191723
TAFLEX
TAF
KLEX 191723Z 1918/2018 25005KT P6SM OVC009
     FM192000 24005KT P6SM BKN012
     FM200000 VRB03KT P6SM SCT015 SCT200
      TEMPO 2000/2004 BKN015
     FM200600 VRB03KT 3SM BR FEW010 BKN200
     FM200900 12004KT 2SM BR BKN008
     FM201500 11006KT P6SM SCT010 BKN200=

USA.gov is the U.S. government's official web portal to all federal, state and local government web resources and services.